Time;durP1;ratioP1;P1;durP2;ratioP2;P2;SDS_P1;SDS_P2;PMS_P1;PMS_P2;Temp;Humidity;BMP_temperature;BMP_pressure;BME280_temperature;BME280_humidity;BME280_pressure;Samples;Min_cycle;Max_cycle;Signal;HPM_P1;HPM_P2
2021/10/07 00:00:20;;;;;;;1.10;1.00;;;;;;;12.04;67.78;96333.75;4995436;28;20245;-85
2021/10/07 00:02:46;;;;;;;1.20;1.10;;;;;;;12.06;67.15;96334.38;4994663;28;20204;-84
2021/10/07 00:05:13;;;;;;;1.67;1.00;;;;;;;12.03;67.76;96337.28;4995198;28;20294;-85
2021/10/07 00:07:40;;;;;;;1.43;1.00;;;;;;;12.04;67.55;96334.53;4994828;28;20716;-83
2021/10/07 00:10:08;;;;;;;2.03;1.00;;;;;;;12.06;67.79;96326.63;4994525;28;20230;-84
2021/10/07 00:12:36;;;;;;;2.40;1.00;;;;;;;12.06;67.47;96334.38;4993681;28;20208;-83
2021/10/07 00:15:04;;;;;;;1.10;1.00;;;;;;;12.07;67.45;96339.38;4993845;28;20214;-83
2021/10/07 00:17:30;;;;;;;1.20;1.03;;;;;;;12.05;67.86;96336.16;4993838;28;20203;-84
2021/10/07 00:19:57;;;;;;;1.17;1.07;;;;;;;12.04;68.09;96338.91;4993492;28;20223;-83
2021/10/07 00:22:24;;;;;;;1.10;0.90;;;;;;;12.07;68.30;96341.16;4993560;28;20243;-83
2021/10/07 00:24:51;;;;;;;1.33;0.90;;;;;;;12.05;68.28;96330.19;4993620;28;20214;-85
2021/10/07 00:27:17;;;;;;;2.37;1.00;;;;;;;12.14;67.89;96338.69;4993941;28;20200;-83
2021/10/07 00:29:46;;;;;;;1.17;1.00;;;;;;;12.12;67.84;96327.75;4991394;28;20359;-81
2021/10/07 00:32:15;;;;;;;1.00;0.90;;;;;;;12.14;67.54;96338.69;4992006;28;20247;-83
2021/10/07 00:34:56;;;;;;;1.80;1.10;;;;;;;12.13;67.83;96330.13;4992988;28;20218;-84
2021/10/07 00:37:27;;;;;;;1.20;1.00;;;;;;;12.14;67.92;96334.31;4993249;28;20204;-84
2021/10/07 00:39:53;;;;;;;1.03;0.90;;;;;;;12.17;67.49;96336.56;4993788;28;20314;-84
2021/10/07 00:42:20;;;;;;;1.17;0.90;;;;;;;12.20;67.52;96338.84;4992299;28;20235;-85
2021/10/07 00:44:48;;;;;;;2.70;0.93;;;;;;;12.19;67.65;96332.06;4991360;28;20210;-83
2021/10/07 00:47:17;;;;;;;2.70;1.30;;;;;;;12.17;68.38;96335.78;4991502;28;20265;-85
2021/10/07 00:49:44;;;;;;;0.80;0.80;;;;;;;12.07;68.99;96344.53;4993340;28;20315;-84
2021/10/07 00:52:12;;;;;;;1.33;1.20;;;;;;;12.04;69.14;96341.47;4992602;28;20227;-84
2021/10/07 00:54:39;;;;;;;1.83;1.13;;;;;;;12.03;68.76;96335.50;4996546;28;20277;-84
2021/10/07 00:57:08;;;;;;;1.17;1.00;;;;;;;12.05;68.97;96335.34;5012960;28;20217;-84
2021/10/07 00:59:35;;;;;;;1.93;1.00;;;;;;;12.08;69.47;96333.25;5012747;28;20318;-83
2021/10/07 01:02:05;;;;;;;0.80;0.80;;;;;;;12.10;69.11;96333.06;5012066;28;20199;-83
2021/10/07 01:04:32;;;;;;;2.57;1.00;;;;;;;12.11;69.05;96334.69;5011194;28;20214;-83
2021/10/07 01:06:58;;;;;;;0.83;0.83;;;;;;;12.09;68.84;96332.28;5012263;28;20214;-83
2021/10/07 01:09:26;;;;;;;0.97;0.90;;;;;;;12.14;69.00;96329.16;5013007;28;20226;-85
2021/10/07 01:11:53;;;;;;;1.57;0.93;;;;;;;12.19;69.31;96328.66;5013400;28;20223;-85
2021/10/07 01:14:33;;;;;;;1.20;1.03;;;;;;;12.24;68.64;96326.41;4996191;28;20203;-82
2021/10/07 01:17:00;;;;;;;1.20;1.10;;;;;;;12.21;68.46;96324.94;4993960;28;20215;-84
2021/10/07 01:19:29;;;;;;;1.47;1.10;;;;;;;12.19;69.18;96329.47;4992809;28;20793;-85
2021/10/07 01:21:57;;;;;;;2.23;1.00;;;;;;;12.26;68.49;96335.59;4992906;28;20210;-84
2021/10/07 01:24:24;;;;;;;2.30;1.07;;;;;;;12.30;68.43;96326.53;4993166;28;20199;-82
2021/10/07 01:26:50;;;;;;;1.93;1.10;;;;;;;12.35;67.92;96331.16;4992818;28;20207;-84
2021/10/07 01:29:17;;;;;;;2.83;1.40;;;;;;;12.28;68.60;96328.47;4992340;28;20239;-83
2021/10/07 01:31:43;;;;;;;2.50;1.10;;;;;;;12.31;68.41;96340.25;4992269;28;20633;-83
2021/10/07 01:34:10;;;;;;;0.90;0.90;;;;;;;12.32;68.36;96337.47;4993128;28;20204;-83
2021/10/07 01:36:36;;;;;;;1.07;0.93;;;;;;;12.26;68.49;96338.16;4994590;28;20210;-83
2021/10/07 01:39:04;;;;;;;1.00;1.00;;;;;;;12.29;68.30;96337.84;4996110;28;20227;-84
2021/10/07 01:41:31;;;;;;;0.90;0.90;;;;;;;12.23;68.50;96327.38;4994301;28;20223;-85
2021/10/07 01:43:57;;;;;;;1.23;1.00;;;;;;;12.28;68.53;96327.69;4995469;28;20211;-83
2021/10/07 01:46:23;;;;;;;1.07;0.87;;;;;;;12.26;68.30;96327.03;4994157;28;20208;-83
2021/10/07 01:48:50;;;;;;;1.63;0.90;;;;;;;12.20;68.88;96331.09;4994373;28;20224;-83
2021/10/07 01:51:16;;;;;;;1.40;0.93;;;;;;;12.23;68.35;96333.34;4993829;28;20310;-83
2021/10/07 01:53:43;;;;;;;1.40;0.90;;;;;;;12.25;68.68;96328.81;4993688;28;20253;-83
2021/10/07 01:56:11;;;;;;;1.10;1.00;;;;;;;12.28;68.67;96333.66;4993046;28;20227;-83
2021/10/07 01:58:37;;;;;;;1.30;1.10;;;;;;;12.31;68.62;96327.34;4993287;28;20227;-83
2021/10/07 02:01:04;;;;;;;1.93;1.00;;;;;;;12.30;68.09;96331.69;4993700;28;20204;-83
2021/10/07 02:03:30;;;;;;;2.20;0.90;;;;;;;12.32;68.17;96324.56;4993743;28;20210;-83
2021/10/07 02:05:56;;;;;;;1.10;0.93;;;;;;;12.33;68.13;96333.13;4988965;28;20211;-83
2021/10/07 02:08:23;;;;;;;1.10;0.90;;;;;;;12.37;67.71;96334.41;4973844;28;20243;-83
2021/10/07 02:10:49;;;;;;;0.80;0.80;;;;;;;12.35;67.91;96334.56;4974201;28;20226;-83
2021/10/07 02:13:17;;;;;;;0.80;0.80;;;;;;;12.37;67.95;96336.97;4973521;28;20614;-83
2021/10/07 02:15:44;;;;;;;0.90;0.90;;;;;;;12.35;68.06;96331.97;4981608;28;20215;-82
2021/10/07 02:18:10;;;;;;;1.10;0.90;;;;;;;12.36;67.67;96333.59;4993364;28;20234;-82
2021/10/07 02:20:37;;;;;;;1.10;0.80;;;;;;;12.28;68.40;96338.81;4993102;28;20214;-83
2021/10/07 02:23:03;;;;;;;1.30;0.80;;;;;;;12.32;68.43;96332.31;4992997;28;20188;-83
2021/10/07 02:25:30;;;;;;;1.07;1.00;;;;;;;12.39;68.33;96335.03;4992906;28;20575;-83
2021/10/07 02:27:56;;;;;;;1.83;1.10;;;;;;;12.43;68.06;96341.47;4992448;28;20207;-83
2021/10/07 02:30:24;;;;;;;1.40;1.00;;;;;;;12.45;68.31;96336.94;4993000;28;20203;-83
2021/10/07 02:32:51;;;;;;;1.63;1.10;;;;;;;12.34;69.15;96340.69;4993107;28;20235;-83
2021/10/07 02:35:18;;;;;;;2.03;1.00;;;;;;;12.33;68.88;96338.28;4993072;28;20215;-83
2021/10/07 02:37:46;;;;;;;1.07;1.00;;;;;;;12.30;69.11;96338.66;4992903;28;20210;-82
2021/10/07 02:40:16;;;;;;;2.20;0.87;;;;;;;12.19;69.76;96349.31;4993070;28;20231;-83
2021/10/07 02:42:43;;;;;;;1.63;0.90;;;;;;;12.27;69.03;96349.31;4992548;28;20567;-83
2021/10/07 02:45:11;;;;;;;2.33;0.80;;;;;;;12.28;68.88;96346.56;4992895;28;20808;-83
2021/10/07 02:47:39;;;;;;;1.07;0.80;;;;;;;12.25;69.36;96346.09;4991276;28;20219;-83
2021/10/07 02:50:08;;;;;;;1.47;1.00;;;;;;;12.30;69.18;96348.97;4992810;28;20227;-83
2021/10/07 02:52:34;;;;;;;1.50;0.90;;;;;;;12.34;68.28;96343.28;4991724;28;20582;-84
2021/10/07 02:55:00;;;;;;;2.03;0.90;;;;;;;12.31;68.71;96351.38;4991878;28;20227;-83
2021/10/07 02:57:27;;;;;;;1.67;1.20;;;;;;;12.29;68.85;96347.38;4992048;28;20203;-83
2021/10/07 02:59:53;;;;;;;1.77;1.17;;;;;;;12.30;68.65;96352.38;4992179;28;20223;-83
2021/10/07 03:02:20;;;;;;;0.90;0.90;;;;;;;12.31;68.58;96353.16;4991991;28;20231;-83
2021/10/07 03:04:49;;;;;;;1.20;1.10;;;;;;;12.23;68.90;96359.16;4992408;28;20291;-83
2021/10/07 03:07:15;;;;;;;1.00;1.00;;;;;;;12.28;68.52;96362.06;4991509;28;20202;-83
2021/10/07 03:09:42;;;;;;;1.33;1.00;;;;;;;12.28;69.21;96372.38;4992150;28;20227;-83
2021/10/07 03:12:09;;;;;;;1.10;1.00;;;;;;;12.26;68.93;96374.31;4992229;28;20219;-83
2021/10/07 03:14:37;;;;;;;0.87;0.80;;;;;;;12.30;68.83;96367.06;4992390;28;20204;-83
2021/10/07 03:17:03;;;;;;;1.10;1.00;;;;;;;12.29;68.75;96365.44;4991759;28;20690;-83
2021/10/07 03:19:30;;;;;;;1.03;0.90;;;;;;;12.31;68.83;96369.47;4992254;28;20226;-83
2021/10/07 03:21:57;;;;;;;1.70;0.90;;;;;;;12.29;68.95;96374.00;4991810;28;20204;-83
2021/10/07 03:24:24;;;;;;;1.53;1.10;;;;;;;12.34;68.81;96363.13;4991750;28;20203;-83
2021/10/07 03:26:50;;;;;;;1.57;1.27;;;;;;;12.23;70.10;96369.47;4991838;28;20199;-83
2021/10/07 03:29:17;;;;;;;1.43;1.00;;;;;;;12.28;69.59;96374.97;4991153;28;20250;-83
2021/10/07 03:31:43;;;;;;;1.23;1.13;;;;;;;12.34;69.06;96376.03;4991454;28;20230;-83
2021/10/07 03:34:10;;;;;;;2.50;1.03;;;;;;;12.37;68.73;96370.56;4991290;28;20200;-83
2021/10/07 03:36:36;;;;;;;1.47;1.10;;;;;;;12.34;69.43;96383.78;4990977;28;20207;-83
2021/10/07 03:39:04;;;;;;;1.10;1.00;;;;;;;12.32;69.79;96372.81;4991263;28;20230;-83
2021/10/07 03:41:31;;;;;;;1.97;1.00;;;;;;;12.35;69.48;96373.31;4991347;28;20200;-83
2021/10/07 03:43:57;;;;;;;1.83;0.90;;;;;;;12.33;69.90;96377.81;4991439;28;20203;-83
2021/10/07 03:46:24;;;;;;;2.97;1.00;;;;;;;12.33;69.90;96377.00;4991035;28;20257;-83
2021/10/07 03:48:50;;;;;;;2.80;1.00;;;;;;;12.34;69.61;96379.44;4991465;28;20234;-83
2021/10/07 03:51:17;;;;;;;1.70;1.20;;;;;;;12.32;70.04;96378.00;4990674;28;20214;-83
2021/10/07 03:53:43;;;;;;;1.47;1.30;;;;;;;12.34;70.03;96379.44;4991834;28;20694;-83
2021/10/07 03:56:11;;;;;;;0.87;0.80;;;;;;;12.39;69.72;96381.53;4990929;28;20603;-83
2021/10/07 03:58:38;;;;;;;1.40;1.10;;;;;;;12.29;70.56;96386.09;4991008;28;20232;-83
2021/10/07 04:01:04;;;;;;;1.20;1.10;;;;;;;12.25;70.60;96384.81;4991418;28;20585;-84
2021/10/07 04:03:31;;;;;;;1.73;1.10;;;;;;;12.19;70.53;96382.88;4991272;28;20383;-83
2021/10/07 04:05:58;;;;;;;1.93;1.00;;;;;;;12.15;71.11;96379.03;4991256;28;20199;-84
2021/10/07 04:08:25;;;;;;;1.20;1.10;;;;;;;12.20;70.30;96385.31;4991079;28;20227;-83
2021/10/07 04:10:52;;;;;;;0.90;0.90;;;;;;;12.21;70.49;96386.13;4991376;28;20208;-84
2021/10/07 04:13:20;;;;;;;1.10;1.00;;;;;;;12.28;70.27;96392.22;4991103;28;20223;-83
2021/10/07 04:15:47;;;;;;;1.23;1.10;;;;;;;12.25;70.50;96393.38;4990930;28;20203;-84
2021/10/07 04:18:14;;;;;;;1.67;1.10;;;;;;;12.31;70.03;96397.06;4990899;28;20223;-83
2021/10/07 04:20:40;;;;;;;2.30;1.30;;;;;;;12.30;70.19;96388.50;4991143;28;20208;-83
2021/10/07 04:23:07;;;;;;;3.07;1.60;;;;;;;12.29;70.51;96392.06;4990790;28;20203;-83
2021/10/07 04:25:33;;;;;;;1.73;1.33;;;;;;;12.30;70.72;96403.19;4990725;28;20583;-83
2021/10/07 04:28:01;;;;;;;2.57;1.63;;;;;;;12.31;70.41;96402.22;4990631;28;20211;-83
2021/10/07 04:30:29;;;;;;;1.93;1.40;;;;;;;12.28;70.24;96405.13;4991360;28;20210;-83
2021/10/07 04:32:58;;;;;;;2.67;1.60;;;;;;;12.31;69.97;96408.19;4990812;28;20234;-84
2021/10/07 04:35:24;;;;;;;3.00;1.40;;;;;;;12.33;70.16;96406.22;4986953;28;20200;-83
2021/10/07 04:37:51;;;;;;;2.53;1.50;;;;;;;12.30;70.26;96400.63;4990623;28;20204;-83
2021/10/07 04:40:17;;;;;;;2.23;1.70;;;;;;;12.31;70.92;96405.63;4990654;28;20208;-83
2021/10/07 04:42:44;;;;;;;2.10;1.53;;;;;;;12.25;70.84;96413.22;4989262;28;20191;-84
2021/10/07 04:45:10;;;;;;;3.60;1.70;;;;;;;12.30;71.00;96413.53;4985757;28;20211;-84
2021/10/07 04:47:38;;;;;;;2.50;1.73;;;;;;;12.32;71.25;96414.13;4989890;28;20203;-83
2021/10/07 04:50:05;;;;;;;2.00;1.57;;;;;;;12.32;71.59;96404.63;4990088;28;20598;-83
2021/10/07 04:52:32;;;;;;;1.97;1.40;;;;;;;12.29;71.61;96420.47;4990295;28;20721;-83
2021/10/07 04:55:01;;;;;;;12.07;1.90;;;;;;;12.17;73.11;96421.78;4996077;28;20831;-83
2021/10/07 04:57:29;;;;;;;9.17;7.97;;;;;;;12.24;71.34;96414.19;5009973;28;20206;-83
2021/10/07 04:59:55;;;;;;;12.70;11.30;;;;;;;12.25;71.12;96406.28;5009596;28;20226;-83
2021/10/07 05:02:22;;;;;;;4.37;3.47;;;;;;;12.27;71.58;96419.03;4998865;28;20199;-84
2021/10/07 05:04:49;;;;;;;3.30;2.10;;;;;;;12.30;70.91;96409.16;4985606;28;20326;-83
2021/10/07 05:07:16;;;;;;;1.63;1.30;;;;;;;12.28;71.52;96410.31;4979443;28;20200;-85
2021/10/07 05:09:42;;;;;;;3.37;1.57;;;;;;;12.26;71.81;96407.06;4984092;28;20697;-85
2021/10/07 05:12:11;;;;;;;1.40;1.30;;;;;;;12.30;71.14;96408.38;4975719;28;20235;-86
2021/10/07 05:14:40;;;;;;;2.20;1.40;;;;;;;12.25;71.27;96408.06;4977664;28;20286;-85
2021/10/07 05:17:06;;;;;;;2.13;1.20;;;;;;;12.23;71.81;96405.63;4998603;28;20223;-85
2021/10/07 05:19:33;;;;;;;1.53;1.30;;;;;;;12.25;71.32;96405.47;5002524;28;20229;-85
2021/10/07 05:22:01;;;;;;;2.00;1.40;;;;;;;12.25;71.14;96411.44;5013683;28;20266;-83
2021/10/07 05:24:29;;;;;;;2.03;1.30;;;;;;;12.22;71.74;96405.78;4996632;28;20552;-85
2021/10/07 05:26:56;;;;;;;4.27;1.43;;;;;;;12.25;71.71;96418.38;4994874;28;20196;-85
2021/10/07 05:29:22;;;;;;;3.77;1.30;;;;;;;12.27;71.53;96413.84;4995430;28;20251;-84
2021/10/07 05:31:49;;;;;;;2.23;1.40;;;;;;;12.27;71.71;96416.44;4995325;28;20211;-86
2021/10/07 05:34:16;;;;;;;2.93;1.67;;;;;;;12.28;71.44;96418.06;4997102;28;20263;-84
2021/10/07 05:36:45;;;;;;;3.07;1.70;;;;;;;12.22;72.04;96421.28;4995613;28;20207;-84
2021/10/07 05:39:13;;;;;;;1.80;1.47;;;;;;;12.18;72.29;96423.38;4994990;28;20231;-85
2021/10/07 05:41:40;;;;;;;2.17;1.50;;;;;;;12.22;72.76;96429.03;4995033;28;20234;-85
2021/10/07 05:44:09;;;;;;;1.50;1.40;;;;;;;12.26;71.85;96422.56;4995626;28;20214;-85
2021/10/07 05:46:35;;;;;;;1.43;1.30;;;;;;;12.32;71.75;96427.06;4996758;28;20227;-83
2021/10/07 05:49:02;;;;;;;2.27;1.80;;;;;;;12.32;71.63;96419.31;5011840;28;20223;-83
2021/10/07 05:51:29;;;;;;;1.97;1.60;;;;;;;12.22;72.42;96426.44;5012583;28;20221;-83
2021/10/07 05:53:58;;;;;;;2.37;1.40;;;;;;;12.21;72.39;96430.00;4993991;28;20226;-83
2021/10/07 05:56:26;;;;;;;1.77;1.40;;;;;;;12.23;72.23;96430.66;4993363;28;20214;-85
2021/10/07 05:58:53;;;;;;;3.20;1.50;;;;;;;12.28;72.16;96433.53;4983451;28;20228;-84
2021/10/07 06:01:19;;;;;;;1.87;1.43;;;;;;;12.32;71.88;96435.59;4977985;28;20200;-85
2021/10/07 06:03:49;;;;;;;2.83;1.70;;;;;;;12.34;71.62;96438.84;4980492;28;20224;-83
2021/10/07 06:06:15;;;;;;;2.63;1.43;;;;;;;12.37;71.79;96438.50;4973432;28;20201;-83
2021/10/07 06:08:42;;;;;;;2.27;2.07;;;;;;;12.37;71.33;96430.75;4982897;28;20241;-84
2021/10/07 06:11:08;;;;;;;3.73;1.80;;;;;;;12.42;71.56;96432.84;4993809;28;20214;-84
2021/10/07 06:13:36;;;;;;;3.13;1.60;;;;;;;12.42;71.57;96431.06;4992246;28;20235;-83
2021/10/07 06:16:03;;;;;;;2.63;1.70;;;;;;;12.37;72.50;96427.38;4992843;28;20203;-84
2021/10/07 06:18:29;;;;;;;2.50;1.60;;;;;;;12.33;72.76;96433.81;4993076;28;20650;-83
2021/10/07 06:20:56;;;;;;;6.37;1.90;;;;;;;12.28;73.32;96436.94;4994098;28;20207;-84
2021/10/07 06:23:22;;;;;;;2.60;1.70;;;;;;;12.27;72.51;96437.91;4996266;28;20199;-83
2021/10/07 06:25:49;;;;;;;1.80;1.40;;;;;;;12.32;72.52;96440.78;4997620;28;20208;-84
2021/10/07 06:28:17;;;;;;;2.43;1.43;;;;;;;12.36;72.43;96443.84;5000865;28;20231;-83
2021/10/07 06:30:45;;;;;;;2.37;1.50;;;;;;;12.41;71.55;96444.94;5009375;28;20210;-83
2021/10/07 06:33:12;;;;;;;2.30;1.53;;;;;;;12.44;71.54;96442.03;5006843;28;20637;-83
2021/10/07 06:35:42;;;;;;;4.63;1.73;;;;;;;12.49;71.49;96443.31;5002841;28;20654;-84
2021/10/07 06:38:11;;;;;;;3.07;1.50;;;;;;;12.49;71.25;96446.72;5012676;28;20812;-83
2021/10/07 06:40:38;;;;;;;7.63;1.93;;;;;;;12.49;71.49;96461.41;4999138;28;20210;-83
2021/10/07 06:43:05;;;;;;;1.60;1.50;;;;;;;12.50;71.62;96458.66;4992493;28;20575;-84
2021/10/07 06:45:31;;;;;;;2.03;1.80;;;;;;;12.46;72.58;96459.97;4992407;28;20199;-84
2021/10/07 06:47:59;;;;;;;2.00;1.70;;;;;;;12.51;71.70;96473.16;4995574;28;20195;-83
2021/10/07 06:50:27;;;;;;;2.90;1.70;;;;;;;12.50;72.22;96469.00;5010962;28;20214;-83
2021/10/07 06:52:54;;;;;;;2.77;1.80;;;;;;;12.54;72.12;96467.66;4992419;28;20845;-83
2021/10/07 06:55:21;;;;;;;2.63;1.90;;;;;;;12.61;71.35;96465.22;4992333;28;20203;-84
2021/10/07 06:57:48;;;;;;;3.20;1.80;;;;;;;12.63;70.85;96460.69;4992260;28;20270;-83
2021/10/07 07:00:14;;;;;;;2.80;1.83;;;;;;;12.60;71.35;96476.53;4991931;28;20226;-83
2021/10/07 07:02:43;;;;;;;1.90;1.70;;;;;;;12.62;71.42;96472.81;4993651;28;20206;-83
2021/10/07 07:05:12;;;;;;;1.90;1.70;;;;;;;12.65;71.02;96480.25;4992882;28;20207;-84
2021/10/07 07:07:39;;;;;;;3.47;1.80;;;;;;;12.64;71.69;96480.41;4992755;28;20208;-84
2021/10/07 07:10:07;;;;;;;1.93;1.60;;;;;;;12.70;71.66;96475.34;4993218;28;20282;-83
2021/10/07 07:12:34;;;;;;;2.40;1.70;;;;;;;12.72;71.61;96475.19;4993953;28;20224;-85
2021/10/07 07:15:00;;;;;;;3.33;1.63;;;;;;;12.72;71.84;96481.16;4993427;28;20801;-83
2021/10/07 07:17:29;;;;;;;2.67;1.60;;;;;;;12.64;72.30;96486.38;4992826;28;20204;-84
2021/10/07 07:19:58;;;;;;;2.60;1.93;;;;;;;12.67;72.31;96493.00;4980684;28;20224;-83
2021/10/07 07:22:25;;;;;;;2.90;1.60;;;;;;;12.67;72.33;96493.00;4973154;28;20211;-84
2021/10/07 07:24:52;;;;;;;1.83;1.73;;;;;;;12.72;72.05;96498.44;4991041;28;20693;-84
2021/10/07 07:27:18;;;;;;;2.20;1.70;;;;;;;12.86;71.58;96495.19;4991428;28;20210;-83
2021/10/07 07:29:45;;;;;;;2.60;1.60;;;;;;;12.97;70.91;96494.78;4991020;28;20605;-83
2021/10/07 07:32:11;;;;;;;2.60;1.63;;;;;;;13.02;70.15;96502.84;4989366;28;20674;-83
2021/10/07 07:34:38;;;;;;;2.70;1.83;;;;;;;13.09;70.10;96497.78;4972205;28;20242;-84
2021/10/07 07:37:05;;;;;;;3.90;1.93;;;;;;;13.16;70.44;96500.56;4972927;28;20208;-83
2021/10/07 07:39:33;;;;;;;3.00;1.93;;;;;;;13.18;69.59;96501.19;4978224;28;20234;-84
2021/10/07 07:42:00;;;;;;;3.20;2.07;;;;;;;13.19;68.96;96506.19;4991716;28;20204;-84
2021/10/07 07:44:28;;;;;;;3.47;2.50;;;;;;;13.11;69.49;96504.41;4992280;28;20200;-84
2021/10/07 07:46:55;;;;;;;3.20;2.20;;;;;;;12.96;70.38;96503.53;4991701;28;20961;-83
2021/10/07 07:49:22;;;;;;;2.43;2.23;;;;;;;12.94;70.04;96510.63;4991321;28;20237;-86
2021/10/07 07:51:49;;;;;;;3.57;2.10;;;;;;;12.91;70.38;96507.56;4991611;28;20204;-83
2021/10/07 07:54:15;;;;;;;2.80;2.40;;;;;;;12.87;70.98;96514.06;4992719;28;20234;-84
2021/10/07 07:56:43;;;;;;;4.00;2.10;;;;;;;12.77;71.72;96511.69;4992303;28;20207;-84
2021/10/07 07:59:10;;;;;;;2.10;1.90;;;;;;;12.84;71.53;96504.06;4990173;28;20929;-83
2021/10/07 08:01:37;;;;;;;2.07;1.73;;;;;;;12.89;70.75;96512.94;4990666;28;20203;-83
2021/10/07 08:04:07;;;;;;;2.40;2.00;;;;;;;12.79;71.70;96523.47;4991297;28;20615;-83
2021/10/07 08:06:34;;;;;;;1.97;1.80;;;;;;;12.75;72.00;96522.19;4990798;28;20577;-84
2021/10/07 08:09:00;;;;;;;2.63;2.13;;;;;;;12.75;72.26;96524.75;4984462;28;20219;-83
2021/10/07 08:11:27;;;;;;;3.60;2.30;;;;;;;12.79;72.41;96525.25;4985472;28;20287;-84
2021/10/07 08:13:56;;;;;;;3.27;2.20;;;;;;;12.83;71.85;96521.34;4990322;28;20336;-83
2021/10/07 08:16:23;;;;;;;3.90;2.30;;;;;;;12.89;71.92;96525.06;4990280;28;20298;-83
2021/10/07 08:18:49;;;;;;;3.70;2.30;;;;;;;13.05;71.12;96525.00;4990546;28;20231;-85
2021/10/07 08:21:16;;;;;;;3.70;2.10;;;;;;;13.10;70.67;96528.66;4991203;28;20286;-83
2021/10/07 08:23:42;;;;;;;4.30;2.50;;;;;;;13.10;70.73;96526.06;4990673;28;20203;-83
2021/10/07 08:26:09;;;;;;;3.63;2.57;;;;;;;13.22;70.18;96534.31;4991945;28;20214;-86
2021/10/07 08:28:35;;;;;;;3.27;2.40;;;;;;;13.25;70.31;96531.38;4990975;28;20238;-84
2021/10/07 08:31:03;;;;;;;4.40;2.77;;;;;;;13.15;70.88;96530.78;4990946;28;20219;-85
2021/10/07 08:33:29;;;;;;;4.97;2.50;;;;;;;13.16;70.93;96527.22;4991070;28;20219;-83
2021/10/07 08:35:56;;;;;;;4.50;2.77;;;;;;;13.18;70.78;96534.81;4991501;28;20199;-85
2021/10/07 08:38:26;;;;;;;3.87;2.67;;;;;;;13.28;70.97;96537.97;4990731;28;20769;-85
2021/10/07 08:40:53;;;;;;;5.47;2.87;;;;;;;13.32;70.56;96541.84;4990351;28;20242;-84
2021/10/07 08:43:20;;;;;;;4.27;2.53;;;;;;;13.41;70.19;96541.63;4991078;28;20203;-84
2021/10/07 08:45:49;;;;;;;5.10;3.03;;;;;;;13.44;70.49;96538.72;4990614;28;20649;-83
2021/10/07 08:48:17;;;;;;;5.10;2.77;;;;;;;13.35;71.26;96542.31;4990642;28;20349;-83
2021/10/07 08:50:44;;;;;;;4.00;2.70;;;;;;;13.27;70.90;96546.75;4990785;28;20282;-83
2021/10/07 08:53:11;;;;;;;3.57;2.80;;;;;;;13.34;70.85;96542.47;4990994;28;20226;-84
2021/10/07 08:55:37;;;;;;;4.33;2.87;;;;;;;13.38;70.12;96544.56;4990275;28;20203;-83
2021/10/07 08:58:04;;;;;;;3.43;2.90;;;;;;;13.44;69.97;96530.97;4989618;28;20196;-83
2021/10/07 09:00:30;;;;;;;2.67;2.43;;;;;;;13.44;69.98;96548.25;4988985;28;20207;-83
2021/10/07 09:02:57;;;;;;;2.67;2.40;;;;;;;13.38;68.64;96543.75;4981676;28;20203;-82
2021/10/07 09:05:30;;;;;;;4.30;2.50;;;;;;;13.40;68.54;96540.03;4969161;28;20734;-83
2021/10/07 09:08:02;;;;;;;3.03;2.40;;;;;;;13.41;68.87;96533.06;4969326;28;20203;-83
2021/10/07 09:10:38;;;;;;;2.73;2.27;;;;;;;13.46;68.99;96531.59;4975261;28;20206;-83
2021/10/07 09:13:07;;;;;;;3.40;2.50;;;;;;;13.56;68.16;96541.72;4979622;28;20203;-83
2021/10/07 09:15:33;;;;;;;2.53;2.00;;;;;;;13.55;68.42;96539.28;4979327;28;20446;-83
2021/10/07 09:18:08;;;;;;;3.87;2.20;;;;;;;13.49;68.62;96541.56;4978820;28;20207;-84
2021/10/07 09:20:39;;;;;;;3.80;2.63;;;;;;;13.36;68.45;96543.94;4978727;28;20235;-84
2021/10/07 09:23:10;;;;;;;2.60;2.20;;;;;;;13.45;68.94;96540.34;4979402;28;20207;-83
2021/10/07 09:25:53;;;;;;;4.37;2.03;;;;;;;13.53;68.70;96543.81;4978639;28;20211;-83
2021/10/07 09:28:19;;;;;;;3.30;2.17;;;;;;;13.58;68.46;96538.94;4977704;28;20476;-84
2021/10/07 09:30:46;;;;;;;2.33;2.13;;;;;;;13.56;68.72;96541.72;4979807;28;20214;-83
2021/10/07 09:33:12;;;;;;;3.33;2.37;;;;;;;13.48;68.90;96537.38;4986348;28;20226;-83
2021/10/07 09:35:40;;;;;;;4.87;2.50;;;;;;;13.44;69.14;96536.13;4988565;28;20203;-83
2021/10/07 09:38:07;;;;;;;3.43;2.50;;;;;;;13.42;69.36;96537.28;4980349;28;20227;-84
2021/10/07 09:40:33;;;;;;;3.43;2.77;;;;;;;13.43;70.05;96534.53;4980373;28;20715;-83
2021/10/07 09:43:02;;;;;;;2.93;2.40;;;;;;;13.53;70.29;96539.47;4980439;28;20208;-83
2021/10/07 09:45:30;;;;;;;4.53;2.50;;;;;;;13.41;70.22;96536.47;4979519;28;20234;-82
2021/10/07 09:47:59;;;;;;;2.77;2.47;;;;;;;13.32;71.47;96536.66;4981360;28;20211;-85
2021/10/07 09:50:31;;;;;;;5.23;2.50;;;;;;;13.45;70.59;96535.16;4978781;28;20216;-84
2021/10/07 09:53:02;;;;;;;3.20;2.53;;;;;;;13.33;70.68;96531.31;4979296;28;20212;-83
2021/10/07 09:55:33;;;;;;;3.10;2.60;;;;;;;13.31;71.80;96537.63;4978915;28;20227;-82
2021/10/07 09:58:01;;;;;;;3.10;2.43;;;;;;;13.39;71.88;96535.03;4982723;28;20216;-83
2021/10/07 10:00:31;;;;;;;3.73;2.20;;;;;;;13.38;72.58;96544.56;4983156;28;20204;-84
2021/10/07 10:03:00;;;;;;;2.70;2.50;;;;;;;13.37;72.53;96542.16;4982785;28;20235;-83
2021/10/07 10:05:27;;;;;;;3.67;2.50;;;;;;;13.40;72.19;96532.28;4983451;28;20208;-85
2021/10/07 10:07:54;;;;;;;3.97;2.23;;;;;;;13.51;71.98;96532.84;4984376;28;20206;-84
2021/10/07 10:10:22;;;;;;;2.77;2.53;;;;;;;13.59;71.73;96536.19;4984133;28;20243;-84
2021/10/07 10:12:49;;;;;;;3.00;2.30;;;;;;;13.58;72.79;96534.59;4983969;28;20287;-83
2021/10/07 10:15:16;;;;;;;3.37;2.40;;;;;;;13.63;72.59;96528.91;4983032;28;20764;-84
2021/10/07 10:17:44;;;;;;;2.87;2.57;;;;;;;13.57;72.84;96535.56;4984199;28;20592;-83
2021/10/07 10:20:16;;;;;;;2.87;2.50;;;;;;;13.69;72.53;96529.00;4982789;28;20276;-83
2021/10/07 10:22:48;;;;;;;3.73;2.53;;;;;;;13.64;71.06;96527.94;4983072;28;20211;-85
2021/10/07 10:25:14;;;;;;;3.47;3.00;;;;;;;13.57;71.55;96532.97;4982763;28;20216;-83
2021/10/07 10:27:54;;;;;;;4.53;2.67;;;;;;;13.57;73.61;96530.38;4982704;28;20208;-84
2021/10/07 10:30:27;;;;;;;3.30;2.60;;;;;;;13.58;74.30;96534.59;4983558;28;20726;-85
2021/10/07 10:32:56;;;;;;;6.73;3.03;;;;;;;13.57;75.84;96540.72;4978822;28;20287;-85
2021/10/07 10:35:37;;;;;;;4.87;3.03;;;;;;;13.65;74.38;96534.72;4981075;28;20227;-83
2021/10/07 10:38:08;;;;;;;4.33;2.90;;;;;;;13.68;73.54;96527.38;4991075;28;20228;-83
2021/10/07 10:40:34;;;;;;;4.33;2.80;;;;;;;13.71;72.74;96528.81;4993015;28;20202;-83
2021/10/07 10:43:23;;;;;;;3.17;2.57;;;;;;;13.82;72.92;96529.25;4994704;28;20207;-85
2021/10/07 10:46:10;;;;;;;4.37;2.33;;;;;;;13.90;72.46;96535.31;4996849;28;20199;-84
2021/10/07 10:48:55;;;;;;;2.90;2.63;;;;;;;13.90;71.79;96535.31;5000805;28;20310;-85
2021/10/07 10:51:29;;;;;;;3.27;2.83;;;;;;;13.85;70.90;96538.47;4982075;28;20207;-83
2021/10/07 10:53:59;;;;;;;5.40;2.67;;;;;;;13.85;71.04;96535.06;4993291;28;20223;-83
2021/10/07 10:56:29;;;;;;;3.30;2.70;;;;;;;13.95;71.15;96538.22;5011823;28;20589;-83
2021/10/07 10:59:18;;;;;;;4.20;3.80;;;;;;;13.76;70.25;96534.31;4981945;28;20227;-83
2021/10/07 11:01:46;;;;;;;6.00;3.87;;;;;;;13.62;70.18;96535.06;4983102;28;20211;-83
2021/10/07 11:04:12;;;;;;;3.60;3.13;;;;;;;13.57;69.76;96540.72;4982672;28;20588;-83
2021/10/07 11:07:18;;;;;;;4.37;3.83;;;;;;;13.43;69.98;96533.72;4981865;28;20610;-83
2021/10/07 11:10:09;;;;;;;4.23;3.60;;;;;;;13.42;70.76;96532.09;4989542;28;20251;-82
2021/10/07 11:12:53;;;;;;;3.93;3.63;;;;;;;13.42;70.36;96532.09;5003872;28;20702;-83
2021/10/07 11:15:24;;;;;;;4.30;3.90;;;;;;;13.41;69.63;96531.28;5004033;28;20223;-83
2021/10/07 11:17:52;;;;;;;3.77;3.40;;;;;;;13.44;69.17;96530.16;4988543;28;20199;-83
2021/10/07 11:20:22;;;;;;;3.87;3.47;;;;;;;13.46;68.28;96525.63;4982701;28;20226;-83
2021/10/07 11:23:03;;;;;;;5.30;3.47;;;;;;;13.33;67.80;96527.94;4989464;28;20211;-83
2021/10/07 11:25:30;;;;;;;3.23;3.00;;;;;;;13.21;69.05;96531.88;4971740;28;20210;-84
2021/10/07 11:27:57;;;;;;;4.10;3.60;;;;;;;13.13;69.44;96527.53;4972027;28;20200;-84
2021/10/07 11:30:25;;;;;;;4.40;3.87;;;;;;;13.21;69.76;96522.34;4992015;28;20633;-84
2021/10/07 11:32:52;;;;;;;5.20;3.70;;;;;;;13.34;69.88;96522.59;4991778;28;20880;-82
2021/10/07 11:35:21;;;;;;;5.37;4.00;;;;;;;13.37;69.63;96521.44;4990747;28;20226;-83
2021/10/07 11:38:10;;;;;;;4.40;4.00;;;;;;;13.40;70.24;96515.94;4990859;28;20238;-83